Capt Webster — WDF4843 — position and weather

sailwx.info

Track history (hours):
 
Tides and Currents Weather Stations Pressure Air Temp Water Temp Dewpoint Dewpoint Depression Visibility Wind Speed Wind Dir Waves Ship Positions

Capt Webster

Owner: Crosby Marine Transportation LLC, Golden Meadow, LA. More information available from US FCC via Universal Licensing System and Coast Guard Vessel Documentation Center.

Last reported at 2017-Nov-03 22:51 UTC. Time now 2017-Nov-24 21:57 UTC.
Position N 29°33' W 090°28'.
Warning: this ship's position is 20 days out of date.

Length 22 m; draft 2.2 m.

Type: Towing. MMSI: 367456430.

Date/timePositionNaut miles runAvg speedWind from/ knotsBaromVisibWave heightAir tempDewpointWater temp
2017-Nov-03 22:51N 29°33' W 090°28'3 8.2
2017-Nov-03 22:30N 29°34' W 090°31'4 8.0
2017-Nov-03 22:00N 29°35' W 090°35'3 6.8
2017-Nov-03 21:30N 29°36' W 090°39'3 6.0
2017-Nov-03 21:00N 29°37' W 090°42'2 4.2
2017-Nov-03 20:30N 29°36' W 090°40'4 7.4
2017-Nov-03 20:00N 29°35' W 090°36'1 1.0
2017-Nov-03 19:27N 29°35' W 090°36'0 0.0
2017-Nov-03 18:57N 29°35' W 090°36'0 0.0
2017-Nov-03 18:21N 29°35' W 090°36'0 0.0
2017-Nov-03 17:57N 29°35' W 090°36'0 0.0
2017-Nov-03 17:27N 29°35' W 090°36'0 0.0
2017-Nov-03 16:57N 29°35' W 090°36'0 0.0
2017-Nov-03 16:27N 29°35' W 090°36'0 0.0
2017-Nov-03 16:00N 29°35' W 090°36'0 0.0
2017-Nov-03 15:30N 29°35' W 090°36'0 0.0
2017-Nov-03 15:00N 29°35' W 090°36'0 0.0
2017-Nov-03 14:30N 29°35' W 090°36'0 0.0
2017-Nov-03 14:00N 29°35' W 090°36'0 0.0
2017-Nov-03 13:30N 29°35' W 090°36'0 0.0
2017-Nov-03 13:00N 29°35' W 090°36'0 0.0
2017-Nov-03 12:30N 29°35' W 090°36'0 0.0
2017-Nov-03 12:00N 29°35' W 090°36'0 0.0
2017-Nov-03 11:30N 29°35' W 090°36'0 0.0
2017-Nov-03 11:00N 29°35' W 090°36'0 0.0
2017-Nov-03 10:30N 29°35' W 090°36'0 0.0
2017-Nov-03 10:00N 29°35' W 090°36'0 0.0
2017-Nov-03 09:30N 29°35' W 090°36'0 0.0
2017-Nov-03 09:00N 29°35' W 090°36'0 0.0
2017-Nov-03 08:30N 29°35' W 090°36'0 0.0
2017-Nov-03 08:00N 29°35' W 090°36'0 0.0
2017-Nov-03 07:30N 29°35' W 090°36'0 0.0
2017-Nov-03 07:00N 29°35' W 090°36'0 0.2
2017-Nov-03 06:30N 29°35' W 090°36'3 6.1
2017-Nov-03 06:00N 29°34' W 090°33'4 0.1
2017-Nov-01 20:43N 29°33' W 090°28'2 8.5
2017-Nov-01 20:30N 29°34' W 090°30'4 8.4
2017-Nov-01 20:00N 29°34' W 090°35'4 7.1
2017-Nov-01 19:30N 29°35' W 090°39'3 6.7
2017-Nov-01 19:01N 29°37' W 090°42'3 5.9
2017-Nov-01 18:30N 29°34' W 090°43'0 0.0
2017-Nov-01 02:01N 29°34' W 090°43'2 3.5
2017-Nov-01 01:30N 29°33' W 090°42'0 0.5
2017-Nov-01 01:01N 29°33' W 090°42'0 0.0
2017-Nov-01 00:31N 29°33' W 090°42'0 0.0
2017-Nov-01 00:00N 29°33' W 090°42'0 0.0
2017-Oct-31 23:30N 29°33' W 090°42'0 0.0
2017-Oct-31 23:00N 29°33' W 090°42'0 0.0
2017-Oct-31 22:30N 29°33' W 090°42'0 0.0
2017-Oct-31 22:01N 29°33' W 090°42'0 0.0
2017-Oct-31 21:31N 29°33' W 090°42'0 0.0
2017-Oct-31 21:00N 29°33' W 090°42'0 0.0
2017-Oct-31 20:31N 29°33' W 090°42'0 0.0
2017-Oct-31 20:00N 29°33' W 090°42'1 2.7
2017-Oct-31 19:31N 29°34' W 090°43'1 2.9
2017-Oct-31 19:01N 29°35' W 090°43'2 3.5
2017-Oct-31 18:31N 29°36' W 090°41'1 2.4
2017-Oct-31 18:00N 29°36' W 090°40'0 0.0
2017-Oct-31 17:14N 29°36' W 090°40'0 1.8
2017-Oct-31 17:00N 29°36' W 090°40'2 4.2
2017-Oct-31 16:30N 29°36' W 090°43'3 6.1
2017-Oct-31 16:00N 29°33' W 090°42'0 0.4
2017-Oct-31 15:30N 29°33' W 090°42'0 0.0
2017-Oct-31 15:00N 29°33' W 090°42'0 0.0
2017-Oct-31 14:30N 29°33' W 090°42'0 0.0
2017-Oct-31 14:01N 29°33' W 090°42'0 0.0
2017-Oct-31 13:31N 29°33' W 090°42'0 0.0
2017-Oct-31 13:00N 29°33' W 090°42'0 0.0
2017-Oct-31 12:30N 29°33' W 090°42'0 0.0
2017-Oct-31 12:01N 29°33' W 090°42'0 0.0
2017-Oct-31 11:31N 29°33' W 090°42'0 0.0
2017-Oct-31 11:01N 29°33' W 090°42'0 0.0
2017-Oct-31 10:31N 29°33' W 090°42'0 0.0
2017-Oct-31 10:00N 29°33' W 090°42'0 0.0
2017-Oct-31 09:31N 29°33' W 090°42'0 0.0
2017-Oct-31 09:01N 29°33' W 090°42'0 0.0
2017-Oct-31 08:30N 29°33' W 090°42'0 0.0
2017-Oct-31 08:00N 29°33' W 090°42'0 0.0
2017-Oct-31 07:31N 29°33' W 090°42'0 0.0
2017-Oct-31 07:00N 29°33' W 090°42'0 0.0
2017-Oct-31 06:30N 29°33' W 090°42'0 0.0
2017-Oct-31 06:01N 29°33' W 090°42'0 0.0
2017-Oct-31 05:31N 29°33' W 090°42'0 0.0
2017-Oct-31 05:00N 29°33' W 090°42'0 0.0
2017-Oct-31 04:31N 29°33' W 090°42'0 0.0
2017-Oct-31 04:00N 29°33' W 090°42'0 0.0
2017-Oct-31 03:30N 29°33' W 090°42'0 0.0
2017-Oct-31 03:00N 29°33' W 090°42'0 0.0
2017-Oct-31 02:30N 29°33' W 090°42'0 0.0
2017-Oct-31 02:00N 29°33' W 090°42'0 0.0
2017-Oct-31 01:30N 29°33' W 090°42'0 0.0
2017-Oct-31 01:01N 29°33' W 090°42'0 0.0
2017-Oct-31 00:30N 29°33' W 090°42'0 0.0
2017-Oct-31 00:00N 29°33' W 090°42'0 0.0
2017-Oct-30 23:31N 29°33' W 090°42'0 0.0
2017-Oct-30 23:01N 29°33' W 090°42'0 0.0
2017-Oct-30 22:30N 29°33' W 090°42'0 0.0
2017-Oct-30 22:01N 29°33' W 090°42'0 0.0
2017-Oct-30 21:31N 29°33' W 090°42'0 0.0
2017-Oct-30 21:01N 29°33' W 090°42'0 0.0
2017-Oct-30 20:30N 29°33' W 090°42'0 0.0
2017-Oct-30 20:01N 29°33' W 090°42'0 0.0
2017-Oct-30 19:31N 29°33' W 090°42'0 0.0
2017-Oct-30 19:01N 29°33' W 090°42'0 0.0
2017-Oct-30 18:31N 29°33' W 090°42'0 0.0
2017-Oct-30 18:00N 29°33' W 090°42'0 0.0
2017-Oct-30 17:30N 29°33' W 090°42'0 0.1
2017-Oct-30 17:00N 29°33' W 090°42'1 1.4
2017-Oct-30 16:31N 29°33' W 090°42'1 2.0
2017-Oct-30 16:00N 29°34' W 090°43'4 7.2
2017-Oct-30 15:30N 29°32' W 090°47'12 1.3
2017-Oct-30 06:31N 29°37' W 090°59'0 3.5
2017-Oct-30 06:30N 29°37' W 090°59'2 3.9
2017-Oct-30 06:00N 29°35' W 090°58'2 3.3
2017-Oct-30 05:25N 29°34' W 090°56'2 4.2
2017-Oct-30 05:00N 29°33' W 090°54'2 4.1
2017-Oct-30 04:29N 29°32' W 090°52'2 4.0
2017-Oct-30 04:00N 29°32' W 090°50'2 4.0
2017-Oct-30 03:30N 29°32' W 090°48'2 3.8
2017-Oct-30 03:00N 29°32' W 090°46'2 3.7
2017-Oct-30 02:30N 29°34' W 090°44'2 3.2
2017-Oct-30 02:00N 29°35' W 090°43'2 3.8
2017-Oct-30 01:30N 29°37' W 090°42'2 3.2
2017-Oct-30 01:00N 29°36' W 090°41'2 3.9
2017-Oct-30 00:30N 29°35' W 090°39'2 3.4
2017-Oct-30 00:00N 29°35' W 090°37'2 3.7
2017-Oct-29 23:30N 29°34' W 090°35'  
2017-Oct-26 23:56N 29°33' W 090°24'3 8.1
2017-Oct-26 23:30N 29°33' W 090°28'4 8.5
2017-Oct-26 23:00N 29°34' W 090°33'4 7.3
2017-Oct-26 22:31N 29°35' W 090°37'3 6.4
2017-Oct-26 22:00N 29°36' W 090°40'1 2.0
2017-Oct-26 21:30N 29°36' W 090°41'1 1.8
2017-Oct-26 21:00N 29°36' W 090°40'0 0.4
2017-Oct-26 20:30N 29°36' W 090°40'0 0.1
2017-Oct-26 20:00N 29°36' W 090°40'0 0.0
2017-Oct-26 19:30N 29°36' W 090°40'0 0.0
2017-Oct-26 19:00N 29°36' W 090°40'1 1.3
2017-Oct-26 18:30N 29°36' W 090°40'3 6.7
2017-Oct-26 17:59N 29°35' W 090°36'0 0.2
2017-Oct-26 17:30N 29°35' W 090°36'0 0.3
2017-Oct-26 17:00N 29°35' W 090°36'0 0.1
2017-Oct-26 16:30N 29°35' W 090°36'1 2.6
2017-Oct-26 16:00N 29°35' W 090°37'3 5.7
2017-Oct-26 15:30N 29°36' W 090°40'0 0.0
2017-Oct-26 15:00N 29°36' W 090°40'0 0.0
2017-Oct-26 14:30N 29°36' W 090°40'0 0.0
2017-Oct-26 14:00N 29°36' W 090°40'0 1.0
2017-Oct-26 13:30N 29°36' W 090°40'3 6.8
2017-Oct-26 13:00N 29°35' W 090°36'1 1.3
2017-Oct-26 12:30N 29°35' W 090°36'0 0.0
2017-Oct-26 12:00N 29°35' W 090°36'0 0.0
2017-Oct-26 11:30N 29°35' W 090°36'0 0.0
2017-Oct-26 11:00N 29°35' W 090°36'0 0.0
2017-Oct-26 10:30N 29°35' W 090°36'0 0.0
2017-Oct-26 10:00N 29°35' W 090°36'0 0.0
2017-Oct-26 09:30N 29°35' W 090°36'0 0.0
2017-Oct-26 09:00N 29°35' W 090°36'0 0.0
2017-Oct-26 08:30N 29°35' W 090°36'0 0.0
2017-Oct-26 08:00N 29°35' W 090°36'0 0.0
2017-Oct-26 07:30N 29°35' W 090°36'0 0.0
2017-Oct-26 07:00N 29°35' W 090°36'0 0.0
2017-Oct-26 06:30N 29°35' W 090°36'0 0.0
2017-Oct-26 06:00N 29°35' W 090°36'0 0.0
2017-Oct-26 05:30N 29°35' W 090°36'0 0.0
2017-Oct-26 05:00N 29°35' W 090°36'0 0.0
2017-Oct-26 04:30N 29°35' W 090°36'0 0.0
2017-Oct-26 04:00N 29°35' W 090°36'0 0.0
2017-Oct-26 03:30N 29°35' W 090°36'0 0.0
2017-Oct-26 03:00N 29°35' W 090°36'0 0.0
2017-Oct-26 02:30N 29°35' W 090°36'0 0.0
2017-Oct-26 02:00N 29°35' W 090°36'0 0.0
2017-Oct-26 01:30N 29°35' W 090°36'0 0.0
2017-Oct-26 01:00N 29°35' W 090°36'0 0.0
2017-Oct-26 00:30N 29°35' W 090°36'0 0.0
2017-Oct-26 00:00N 29°35' W 090°36'0 0.7
2017-Oct-25 23:30N 29°35' W 090°36'0 0.7
2017-Oct-25 23:00N 29°35' W 090°36'0 0.0
2017-Oct-25 22:30N 29°35' W 090°36'0 0.0
2017-Oct-25 22:00N 29°35' W 090°36'0 0.0
2017-Oct-25 21:30N 29°35' W 090°36'0 0.0
2017-Oct-25 21:00N 29°35' W 090°36'0 0.0
2017-Oct-25 20:30N 29°35' W 090°36'0 0.0
2017-Oct-25 20:00N 29°35' W 090°36'0 0.0
2017-Oct-25 19:30N 29°35' W 090°36'0 0.0
2017-Oct-25 19:00N 29°35' W 090°36'0 0.0
2017-Oct-25 18:30N 29°35' W 090°36'0 0.0
2017-Oct-25 18:00N 29°35' W 090°36'0 0.0
2017-Oct-25 17:30N 29°35' W 090°36'0 0.0
2017-Oct-25 17:00N 29°35' W 090°36'0 0.0
2017-Oct-25 16:30N 29°35' W 090°36'0 0.0
2017-Oct-25 16:00N 29°35' W 090°36'0 0.0
2017-Oct-25 15:30N 29°35' W 090°36'0 0.0
2017-Oct-25 15:00N 29°35' W 090°36'0 0.0
2017-Oct-25 14:30N 29°35' W 090°36'0 0.0
2017-Oct-25 14:00N 29°35' W 090°36'0 0.0
2017-Oct-25 13:30N 29°35' W 090°36'0 0.0
2017-Oct-25 13:00N 29°35' W 090°36'0 0.0
2017-Oct-25 12:30N 29°35' W 090°36'0 0.0
2017-Oct-25 12:00N 29°35' W 090°36'0 0.0
2017-Oct-25 11:30N 29°35' W 090°36'0 0.0
2017-Oct-25 11:00N 29°35' W 090°36'0 0.0
2017-Oct-25 10:30N 29°35' W 090°36'0 0.0
2017-Oct-25 10:00N 29°35' W 090°36'0 0.0
2017-Oct-25 09:30N 29°35' W 090°36'0 0.0
2017-Oct-25 09:00N 29°35' W 090°36'0 0.0
2017-Oct-25 08:30N 29°35' W 090°36'0 0.0
2017-Oct-25 08:00N 29°35' W 090°36'0 0.0
2017-Oct-25 07:30N 29°35' W 090°36'0 0.0
2017-Oct-25 07:00N 29°35' W 090°36'0 0.0
2017-Oct-25 06:30N 29°35' W 090°36'0 0.0
2017-Oct-25 06:00N 29°35' W 090°36'0 0.0
2017-Oct-25 05:30N 29°35' W 090°36'0 0.0
2017-Oct-25 05:00N 29°35' W 090°36'0 0.0
2017-Oct-25 04:30N 29°35' W 090°36'0 0.0
2017-Oct-25 04:00N 29°35' W 090°36'0 0.0
2017-Oct-25 03:30N 29°35' W 090°36'0 0.0
2017-Oct-25 03:00N 29°35' W 090°36'0 0.0
2017-Oct-25 02:30N 29°35' W 090°36'0 0.0
2017-Oct-25 02:00N 29°35' W 090°36'0 0.0
2017-Oct-25 01:30N 29°35' W 090°36'0 0.0
2017-Oct-25 01:00N 29°35' W 090°36'0 0.0
2017-Oct-25 00:30N 29°35' W 090°36'0 0.0
2017-Oct-25 00:00N 29°35' W 090°36'0 0.0
2017-Oct-24 23:30N 29°35' W 090°36'0 0.0
2017-Oct-24 23:00N 29°35' W 090°36'  
Track history (hours):
 
Tides and Currents Weather Stations Pressure Air Temp Water Temp Dewpoint Dewpoint Depression Visibility Wind Speed Wind Dir Waves Ship Positions

Capt Webster

Owner: Crosby Marine Transportation LLC, Golden Meadow, LA. More information available from US FCC via Universal Licensing System and Coast Guard Vessel Documentation Center.

Last reported at 2017-Nov-03 22:51 UTC. Time now 2017-Nov-24 21:57 UTC.
Position N 29°33' W 090°28'.
Warning: this ship's position is 20 days out of date.

Length 22 m; draft 2.2 m.

Type: Towing. MMSI: 367456430.

Date/timePositionNaut miles runAvg speedWind from/ knotsBaromVisibWave heightAir tempDewpointWater temp
2017-Nov-03 22:51N 29°33' W 090°28'3 8.2
2017-Nov-03 22:30N 29°34' W 090°31'4 8.0
2017-Nov-03 22:00N 29°35' W 090°35'3 6.8
2017-Nov-03 21:30N 29°36' W 090°39'3 6.0
2017-Nov-03 21:00N 29°37' W 090°42'2 4.2
2017-Nov-03 20:30N 29°36' W 090°40'4 7.4
2017-Nov-03 20:00N 29°35' W 090°36'1 1.0
2017-Nov-03 19:27N 29°35' W 090°36'0 0.0
2017-Nov-03 18:57N 29°35' W 090°36'0 0.0
2017-Nov-03 18:21N 29°35' W 090°36'0 0.0
2017-Nov-03 17:57N 29°35' W 090°36'0 0.0
2017-Nov-03 17:27N 29°35' W 090°36'0 0.0
2017-Nov-03 16:57N 29°35' W 090°36'0 0.0
2017-Nov-03 16:27N 29°35' W 090°36'0 0.0
2017-Nov-03 16:00N 29°35' W 090°36'0 0.0
2017-Nov-03 15:30N 29°35' W 090°36'0 0.0
2017-Nov-03 15:00N 29°35' W 090°36'0 0.0
2017-Nov-03 14:30N 29°35' W 090°36'0 0.0
2017-Nov-03 14:00N 29°35' W 090°36'0 0.0
2017-Nov-03 13:30N 29°35' W 090°36'0 0.0
2017-Nov-03 13:00N 29°35' W 090°36'0 0.0
2017-Nov-03 12:30N 29°35' W 090°36'0 0.0
2017-Nov-03 12:00N 29°35' W 090°36'0 0.0
2017-Nov-03 11:30N 29°35' W 090°36'0 0.0
2017-Nov-03 11:00N 29°35' W 090°36'0 0.0
2017-Nov-03 10:30N 29°35' W 090°36'0 0.0
2017-Nov-03 10:00N 29°35' W 090°36'0 0.0
2017-Nov-03 09:30N 29°35' W 090°36'0 0.0
2017-Nov-03 09:00N 29°35' W 090°36'0 0.0
2017-Nov-03 08:30N 29°35' W 090°36'0 0.0
2017-Nov-03 08:00N 29°35' W 090°36'0 0.0
2017-Nov-03 07:30N 29°35' W 090°36'0 0.0
2017-Nov-03 07:00N 29°35' W 090°36'0 0.2
2017-Nov-03 06:30N 29°35' W 090°36'3 6.1
2017-Nov-03 06:00N 29°34' W 090°33'4 0.1
2017-Nov-01 20:43N 29°33' W 090°28'2 8.5
2017-Nov-01 20:30N 29°34' W 090°30'4 8.4
2017-Nov-01 20:00N 29°34' W 090°35'4 7.1
2017-Nov-01 19:30N 29°35' W 090°39'3 6.7
2017-Nov-01 19:01N 29°37' W 090°42'3 5.9
2017-Nov-01 18:30N 29°34' W 090°43'0 0.0
2017-Nov-01 02:01N 29°34' W 090°43'2 3.5
2017-Nov-01 01:30N 29°33' W 090°42'0 0.5
2017-Nov-01 01:01N 29°33' W 090°42'0 0.0
2017-Nov-01 00:31N 29°33' W 090°42'0 0.0
2017-Nov-01 00:00N 29°33' W 090°42'0 0.0
2017-Oct-31 23:30N 29°33' W 090°42'0 0.0
2017-Oct-31 23:00N 29°33' W 090°42'0 0.0
2017-Oct-31 22:30N 29°33' W 090°42'0 0.0
2017-Oct-31 22:01N 29°33' W 090°42'0 0.0
2017-Oct-31 21:31N 29°33' W 090°42'0 0.0
2017-Oct-31 21:00N 29°33' W 090°42'0 0.0
2017-Oct-31 20:31N 29°33' W 090°42'0 0.0
2017-Oct-31 20:00N 29°33' W 090°42'1 2.7
2017-Oct-31 19:31N 29°34' W 090°43'1 2.9
2017-Oct-31 19:01N 29°35' W 090°43'2 3.5
2017-Oct-31 18:31N 29°36' W 090°41'1 2.4
2017-Oct-31 18:00N 29°36' W 090°40'0 0.0
2017-Oct-31 17:14N 29°36' W 090°40'0 1.8
2017-Oct-31 17:00N 29°36' W 090°40'2 4.2
2017-Oct-31 16:30N 29°36' W 090°43'3 6.1
2017-Oct-31 16:00N 29°33' W 090°42'0 0.4
2017-Oct-31 15:30N 29°33' W 090°42'0 0.0
2017-Oct-31 15:00N 29°33' W 090°42'0 0.0
2017-Oct-31 14:30N 29°33' W 090°42'0 0.0
2017-Oct-31 14:01N 29°33' W 090°42'0 0.0
2017-Oct-31 13:31N 29°33' W 090°42'0 0.0
2017-Oct-31 13:00N 29°33' W 090°42'0 0.0
2017-Oct-31 12:30N 29°33' W 090°42'0 0.0
2017-Oct-31 12:01N 29°33' W 090°42'0 0.0
2017-Oct-31 11:31N 29°33' W 090°42'0 0.0
2017-Oct-31 11:01N 29°33' W 090°42'0 0.0
2017-Oct-31 10:31N 29°33' W 090°42'0 0.0
2017-Oct-31 10:00N 29°33' W 090°42'0 0.0
2017-Oct-31 09:31N 29°33' W 090°42'0 0.0
2017-Oct-31 09:01N 29°33' W 090°42'0 0.0
2017-Oct-31 08:30N 29°33' W 090°42'0 0.0
2017-Oct-31 08:00N 29°33' W 090°42'0 0.0
2017-Oct-31 07:31N 29°33' W 090°42'0 0.0
2017-Oct-31 07:00N 29°33' W 090°42'0 0.0
2017-Oct-31 06:30N 29°33' W 090°42'0 0.0
2017-Oct-31 06:01N 29°33' W 090°42'0 0.0
2017-Oct-31 05:31N 29°33' W 090°42'0 0.0
2017-Oct-31 05:00N 29°33' W 090°42'0 0.0
2017-Oct-31 04:31N 29°33' W 090°42'0 0.0
2017-Oct-31 04:00N 29°33' W 090°42'0 0.0
2017-Oct-31 03:30N 29°33' W 090°42'0 0.0
2017-Oct-31 03:00N 29°33' W 090°42'0 0.0
2017-Oct-31 02:30N 29°33' W 090°42'0 0.0
2017-Oct-31 02:00N 29°33' W 090°42'0 0.0
2017-Oct-31 01:30N 29°33' W 090°42'0 0.0
2017-Oct-31 01:01N 29°33' W 090°42'0 0.0
2017-Oct-31 00:30N 29°33' W 090°42'0 0.0
2017-Oct-31 00:00N 29°33' W 090°42'0 0.0
2017-Oct-30 23:31N 29°33' W 090°42'0 0.0
2017-Oct-30 23:01N 29°33' W 090°42'0 0.0
2017-Oct-30 22:30N 29°33' W 090°42'0 0.0
2017-Oct-30 22:01N 29°33' W 090°42'0 0.0
2017-Oct-30 21:31N 29°33' W 090°42'0 0.0
2017-Oct-30 21:01N 29°33' W 090°42'0 0.0
2017-Oct-30 20:30N 29°33' W 090°42'0 0.0
2017-Oct-30 20:01N 29°33' W 090°42'0 0.0
2017-Oct-30 19:31N 29°33' W 090°42'0 0.0
2017-Oct-30 19:01N 29°33' W 090°42'0 0.0
2017-Oct-30 18:31N 29°33' W 090°42'0 0.0
2017-Oct-30 18:00N 29°33' W 090°42'0 0.0
2017-Oct-30 17:30N 29°33' W 090°42'0 0.1
2017-Oct-30 17:00N 29°33' W 090°42'1 1.4
2017-Oct-30 16:31N 29°33' W 090°42'1 2.0
2017-Oct-30 16:00N 29°34' W 090°43'4 7.2
2017-Oct-30 15:30N 29°32' W 090°47'12 1.3
2017-Oct-30 06:31N 29°37' W 090°59'0 3.5
2017-Oct-30 06:30N 29°37' W 090°59'2 3.9
2017-Oct-30 06:00N 29°35' W 090°58'2 3.3
2017-Oct-30 05:25N 29°34' W 090°56'2 4.2
2017-Oct-30 05:00N 29°33' W 090°54'2 4.1
2017-Oct-30 04:29N 29°32' W 090°52'2 4.0
2017-Oct-30 04:00N 29°32' W 090°50'2 4.0
2017-Oct-30 03:30N 29°32' W 090°48'2 3.8
2017-Oct-30 03:00N 29°32' W 090°46'2 3.7
2017-Oct-30 02:30N 29°34' W 090°44'2 3.2
2017-Oct-30 02:00N 29°35' W 090°43'2 3.8
2017-Oct-30 01:30N 29°37' W 090°42'2 3.2
2017-Oct-30 01:00N 29°36' W 090°41'2 3.9
2017-Oct-30 00:30N 29°35' W 090°39'2 3.4
2017-Oct-30 00:00N 29°35' W 090°37'2 3.7
2017-Oct-29 23:30N 29°34' W 090°35'  
2017-Oct-26 23:56N 29°33' W 090°24'3 8.1
2017-Oct-26 23:30N 29°33' W 090°28'4 8.5
2017-Oct-26 23:00N 29°34' W 090°33'4 7.3
2017-Oct-26 22:31N 29°35' W 090°37'3 6.4
2017-Oct-26 22:00N 29°36' W 090°40'1 2.0
2017-Oct-26 21:30N 29°36' W 090°41'1 1.8
2017-Oct-26 21:00N 29°36' W 090°40'0 0.4
2017-Oct-26 20:30N 29°36' W 090°40'0 0.1
2017-Oct-26 20:00N 29°36' W 090°40'0 0.0
2017-Oct-26 19:30N 29°36' W 090°40'0 0.0
2017-Oct-26 19:00N 29°36' W 090°40'1 1.3
2017-Oct-26 18:30N 29°36' W 090°40'3 6.7
2017-Oct-26 17:59N 29°35' W 090°36'0 0.2
2017-Oct-26 17:30N 29°35' W 090°36'0 0.3
2017-Oct-26 17:00N 29°35' W 090°36'0 0.1
2017-Oct-26 16:30N 29°35' W 090°36'1 2.6
2017-Oct-26 16:00N 29°35' W 090°37'3 5.7
2017-Oct-26 15:30N 29°36' W 090°40'0 0.0
2017-Oct-26 15:00N 29°36' W 090°40'0 0.0
2017-Oct-26 14:30N 29°36' W 090°40'0 0.0
2017-Oct-26 14:00N 29°36' W 090°40'0 1.0
2017-Oct-26 13:30N 29°36' W 090°40'3 6.8
2017-Oct-26 13:00N 29°35' W 090°36'1 1.3
2017-Oct-26 12:30N 29°35' W 090°36'0 0.0
2017-Oct-26 12:00N 29°35' W 090°36'0 0.0
2017-Oct-26 11:30N 29°35' W 090°36'0 0.0
2017-Oct-26 11:00N 29°35' W 090°36'0 0.0
2017-Oct-26 10:30N 29°35' W 090°36'0 0.0
2017-Oct-26 10:00N 29°35' W 090°36'0 0.0
2017-Oct-26 09:30N 29°35' W 090°36'0 0.0
2017-Oct-26 09:00N 29°35' W 090°36'0 0.0
2017-Oct-26 08:30N 29°35' W 090°36'0 0.0
2017-Oct-26 08:00N 29°35' W 090°36'0 0.0
2017-Oct-26 07:30N 29°35' W 090°36'0 0.0
2017-Oct-26 07:00N 29°35' W 090°36'0 0.0
2017-Oct-26 06:30N 29°35' W 090°36'0 0.0
2017-Oct-26 06:00N 29°35' W 090°36'0 0.0
2017-Oct-26 05:30N 29°35' W 090°36'0 0.0
2017-Oct-26 05:00N 29°35' W 090°36'0 0.0
2017-Oct-26 04:30N 29°35' W 090°36'0 0.0
2017-Oct-26 04:00N 29°35' W 090°36'0 0.0
2017-Oct-26 03:30N 29°35' W 090°36'0 0.0
2017-Oct-26 03:00N 29°35' W 090°36'0 0.0
2017-Oct-26 02:30N 29°35' W 090°36'0 0.0
2017-Oct-26 02:00N 29°35' W 090°36'0 0.0
2017-Oct-26 01:30N 29°35' W 090°36'0 0.0
2017-Oct-26 01:00N 29°35' W 090°36'0 0.0
2017-Oct-26 00:30N 29°35' W 090°36'0 0.0
2017-Oct-26 00:00N 29°35' W 090°36'0 0.7
2017-Oct-25 23:30N 29°35' W 090°36'0 0.7
2017-Oct-25 23:00N 29°35' W 090°36'0 0.0
2017-Oct-25 22:30N 29°35' W 090°36'0 0.0
2017-Oct-25 22:00N 29°35' W 090°36'0 0.0
2017-Oct-25 21:30N 29°35' W 090°36'0 0.0
2017-Oct-25 21:00N 29°35' W 090°36'0 0.0
2017-Oct-25 20:30N 29°35' W 090°36'0 0.0
2017-Oct-25 20:00N 29°35' W 090°36'0 0.0
2017-Oct-25 19:30N 29°35' W 090°36'0 0.0
2017-Oct-25 19:00N 29°35' W 090°36'0 0.0
2017-Oct-25 18:30N 29°35' W 090°36'0 0.0
2017-Oct-25 18:00N 29°35' W 090°36'0 0.0
2017-Oct-25 17:30N 29°35' W 090°36'0 0.0
2017-Oct-25 17:00N 29°35' W 090°36'0 0.0
2017-Oct-25 16:30N 29°35' W 090°36'0 0.0
2017-Oct-25 16:00N 29°35' W 090°36'0 0.0
2017-Oct-25 15:30N 29°35' W 090°36'0 0.0
2017-Oct-25 15:00N 29°35' W 090°36'0 0.0
2017-Oct-25 14:30N 29°35' W 090°36'0 0.0
2017-Oct-25 14:00N 29°35' W 090°36'0 0.0
2017-Oct-25 13:30N 29°35' W 090°36'0 0.0
2017-Oct-25 13:00N 29°35' W 090°36'0 0.0
2017-Oct-25 12:30N 29°35' W 090°36'0 0.0
2017-Oct-25 12:00N 29°35' W 090°36'0 0.0
2017-Oct-25 11:30N 29°35' W 090°36'0 0.0
2017-Oct-25 11:00N 29°35' W 090°36'0 0.0
2017-Oct-25 10:30N 29°35' W 090°36'0 0.0
2017-Oct-25 10:00N 29°35' W 090°36'0 0.0
2017-Oct-25 09:30N 29°35' W 090°36'0 0.0
2017-Oct-25 09:00N 29°35' W 090°36'0 0.0
2017-Oct-25 08:30N 29°35' W 090°36'0 0.0
2017-Oct-25 08:00N 29°35' W 090°36'0 0.0
2017-Oct-25 07:30N 29°35' W 090°36'0 0.0
2017-Oct-25 07:00N 29°35' W 090°36'0 0.0
2017-Oct-25 06:30N 29°35' W 090°36'0 0.0
2017-Oct-25 06:00N 29°35' W 090°36'0 0.0
2017-Oct-25 05:30N 29°35' W 090°36'0 0.0
2017-Oct-25 05:00N 29°35' W 090°36'0 0.0
2017-Oct-25 04:30N 29°35' W 090°36'0 0.0
2017-Oct-25 04:00N 29°35' W 090°36'0 0.0
2017-Oct-25 03:30N 29°35' W 090°36'0 0.0
2017-Oct-25 03:00N 29°35' W 090°36'0 0.0
2017-Oct-25 02:30N 29°35' W 090°36'0 0.0
2017-Oct-25 02:00N 29°35' W 090°36'0 0.0
2017-Oct-25 01:30N 29°35' W 090°36'0 0.0
2017-Oct-25 01:00N 29°35' W 090°36'0 0.0
2017-Oct-25 00:30N 29°35' W 090°36'0 0.0
2017-Oct-25 00:00N 29°35' W 090°36'0 0.0
2017-Oct-24 23:30N 29°35' W 090°36'0 0.0
2017-Oct-24 23:00N 29°35' W 090°36'  

Dump ship's entire track history